This is the latest recevied weather packets stored in our database for station/object YS1AHL-23. If no packets are shown the sender has not sent any weather packets the latest 10 day(s).
| Time | Temp. | Humidity | Pressure | Rain* | Wind** | Luminosity | Snow |
|---|---|---|---|---|---|---|---|
| 1777690243 | 3.89° C | 74% | 1012 hPa | 0 mm | - | - | - |
| 1777690183 | 3.89° C | 74% | 1012 hPa | 0 mm | - | - | - |
| 1777689642 | 3.89° C | 73% | 1012 hPa | 0 mm | - | - | - |
| 1777689582 | 3.89° C | 73% | 1012 hPa | 0 mm | - | - | - |
| 1777689042 | 3.89° C | 71% | 1012 hPa | 0 mm | - | - | - |
| 1777688982 | 3.89° C | 71% | 1012 hPa | 0 mm | - | - | - |
| 1777688441 | 4.44° C | 68% | 1012 hPa | 0 mm | - | - | - |
| 1777688381 | 4.44° C | 68% | 1012 hPa | 0 mm | - | - | - |
| 1777687841 | 5.56° C | 62% | 1012 hPa | 0 mm | - | - | - |
| 1777687781 | 5.56° C | 62% | 1012 hPa | 0 mm | - | - | - |
| 1777674028 | 11.11° C | 33% | 1010 hPa | 0 mm | - | - | - |
| 1777673428 | 11.11° C | 33% | 1010 hPa | 0 mm | - | - | - |
| 1777670425 | 10.56° C | 35% | 1010 hPa | 0 mm | - | - | - |
| 1777669227 | 10° C | 37% | 1010 hPa | 0 mm | - | - | - |
| 1777667422 | 10° C | 37% | 1009 hPa | 0 mm | - | - | - |
| 1777667362 | 10° C | 37% | 1009 hPa | 0 mm | - | - | - |
| 1777666821 | 10° C | 38% | 1009 hPa | 0 mm | - | - | - |
| 1777666221 | 10° C | 40% | 1009 hPa | 0 mm | - | - | - |
| 1777666161 | 10° C | 40% | 1009 hPa | 0 mm | - | - | - |
| 1777665620 | 10° C | 42% | 1009 hPa | 0 mm | - | - | - |
| 1777665020 | 10° C | 42% | 1009 hPa | 0 mm | - | - | - |
| 1777664359 | 10° C | 42% | 1009 hPa | 0 mm | - | - | - |
| 1777663218 | 10° C | 42% | 1009 hPa | 0 mm | - | - | - |
| 1777663158 | 10° C | 42% | 1009 hPa | 0 mm | - | - | - |
| 1777660755 | 10.56° C | 41% | 1009 hPa | 0 mm | - | - | - |
* Rain latest hour (hover to see other rain measurements)
** Current wind speed in m/s (hover to see current wind gust speed)